sensor_id;sensor_type;location;lat;lon;timestamp;P1;durP1;ratioP1;P2;durP2;ratioP2
48092;SDS011;33873;47.442;18.902;2023-05-17T00:00:50;11.90;;;4.15;;
48092;SDS011;33873;47.442;18.902;2023-05-17T00:03:18;13.02;;;4.18;;
48092;SDS011;33873;47.442;18.902;2023-05-17T00:05:45;10.93;;;4.60;;
48092;SDS011;33873;47.442;18.902;2023-05-17T00:08:13;9.98;;;5.18;;
48092;SDS011;33873;47.442;18.902;2023-05-17T00:10:41;14.68;;;4.60;;
48092;SDS011;33873;47.442;18.902;2023-05-17T00:13:09;14.63;;;4.10;;
48092;SDS011;33873;47.442;18.902;2023-05-17T00:15:37;8.07;;;5.15;;
48092;SDS011;33873;47.442;18.902;2023-05-17T00:18:04;12.32;;;4.90;;
48092;SDS011;33873;47.442;18.902;2023-05-17T00:20:32;8.32;;;4.25;;
48092;SDS011;33873;47.442;18.902;2023-05-17T00:23:00;6.07;;;3.95;;
48092;SDS011;33873;47.442;18.902;2023-05-17T00:25:29;8.20;;;4.30;;
48092;SDS011;33873;47.442;18.902;2023-05-17T00:27:57;9.52;;;5.00;;
48092;SDS011;33873;47.442;18.902;2023-05-17T00:30:24;7.15;;;4.15;;
48092;SDS011;33873;47.442;18.902;2023-05-17T00:32:52;6.45;;;3.65;;
48092;SDS011;33873;47.442;18.902;2023-05-17T00:35:20;8.40;;;4.57;;
48092;SDS011;33873;47.442;18.902;2023-05-17T00:37:47;10.95;;;4.47;;
48092;SDS011;33873;47.442;18.902;2023-05-17T00:40:15;9.85;;;4.57;;
48092;SDS011;33873;47.442;18.902;2023-05-17T00:42:43;8.88;;;4.30;;
48092;SDS011;33873;47.442;18.902;2023-05-17T00:45:10;7.20;;;4.32;;
48092;SDS011;33873;47.442;18.902;2023-05-17T00:47:39;6.80;;;4.10;;
48092;SDS011;33873;47.442;18.902;2023-05-17T00:50:07;7.95;;;4.35;;
48092;SDS011;33873;47.442;18.902;2023-05-17T00:52:35;6.18;;;3.85;;
48092;SDS011;33873;47.442;18.902;2023-05-17T00:55:03;5.87;;;3.90;;
48092;SDS011;33873;47.442;18.902;2023-05-17T00:57:31;10.45;;;4.30;;
48092;SDS011;33873;47.442;18.902;2023-05-17T01:00:00;6.97;;;4.05;;
48092;SDS011;33873;47.442;18.902;2023-05-17T01:02:31;8.43;;;4.57;;
48092;SDS011;33873;47.442;18.902;2023-05-17T01:04:58;15.70;;;3.83;;
48092;SDS011;33873;47.442;18.902;2023-05-17T01:07:27;8.35;;;3.80;;
48092;SDS011;33873;47.442;18.902;2023-05-17T01:09:55;12.75;;;5.22;;
48092;SDS011;33873;47.442;18.902;2023-05-17T01:12:28;10.68;;;5.28;;
48092;SDS011;33873;47.442;18.902;2023-05-17T01:17:48;14.35;;;3.78;;
48092;SDS011;33873;47.442;18.902;2023-05-17T01:20:42;7.22;;;4.00;;
48092;SDS011;33873;47.442;18.902;2023-05-17T01:23:26;6.68;;;4.43;;
48092;SDS011;33873;47.442;18.902;2023-05-17T01:26:04;13.75;;;5.15;;
48092;SDS011;33873;47.442;18.902;2023-05-17T01:28:38;7.05;;;3.22;;
48092;SDS011;33873;47.442;18.902;2023-05-17T01:31:07;8.82;;;3.90;;
48092;SDS011;33873;47.442;18.902;2023-05-17T01:33:36;10.77;;;4.80;;
48092;SDS011;33873;47.442;18.902;2023-05-17T01:36:04;8.07;;;4.07;;
48092;SDS011;33873;47.442;18.902;2023-05-17T01:38:33;7.18;;;3.90;;
48092;SDS011;33873;47.442;18.902;2023-05-17T01:41:03;7.97;;;3.97;;
48092;SDS011;33873;47.442;18.902;2023-05-17T01:46:27;8.00;;;4.28;;
48092;SDS011;33873;47.442;18.902;2023-05-17T01:49:08;13.10;;;3.95;;
48092;SDS011;33873;47.442;18.902;2023-05-17T01:51:45;7.53;;;3.80;;
48092;SDS011;33873;47.442;18.902;2023-05-17T01:54:18;8.57;;;3.97;;
48092;SDS011;33873;47.442;18.902;2023-05-17T01:56:50;6.60;;;3.90;;
48092;SDS011;33873;47.442;18.902;2023-05-17T01:59:23;15.63;;;4.05;;
48092;SDS011;33873;47.442;18.902;2023-05-17T02:01:53;9.02;;;3.72;;
48092;SDS011;33873;47.442;18.902;2023-05-17T02:04:23;8.15;;;3.95;;
48092;SDS011;33873;47.442;18.902;2023-05-17T02:06:51;10.45;;;3.55;;
48092;SDS011;33873;47.442;18.902;2023-05-17T02:09:19;12.30;;;5.00;;
48092;SDS011;33873;47.442;18.902;2023-05-17T02:11:47;5.82;;;3.15;;
48092;SDS011;33873;47.442;18.902;2023-05-17T02:14:15;10.43;;;4.57;;
48092;SDS011;33873;47.442;18.902;2023-05-17T02:16:43;8.38;;;4.37;;
48092;SDS011;33873;47.442;18.902;2023-05-17T02:19:11;5.65;;;3.92;;
48092;SDS011;33873;47.442;18.902;2023-05-17T02:21:40;8.20;;;4.32;;
48092;SDS011;33873;47.442;18.902;2023-05-17T02:24:08;7.57;;;4.75;;
48092;SDS011;33873;47.442;18.902;2023-05-17T02:26:35;9.02;;;3.65;;
48092;SDS011;33873;47.442;18.902;2023-05-17T02:29:03;9.60;;;5.25;;
48092;SDS011;33873;47.442;18.902;2023-05-17T02:31:31;7.97;;;4.78;;
48092;SDS011;33873;47.442;18.902;2023-05-17T02:33:58;7.85;;;3.92;;
48092;SDS011;33873;47.442;18.902;2023-05-17T02:36:26;7.00;;;3.92;;
48092;SDS011;33873;47.442;18.902;2023-05-17T02:38:54;11.63;;;4.40;;
48092;SDS011;33873;47.442;18.902;2023-05-17T02:41:21;6.75;;;4.18;;
48092;SDS011;33873;47.442;18.902;2023-05-17T02:43:49;6.75;;;3.75;;
48092;SDS011;33873;47.442;18.902;2023-05-17T02:46:17;8.00;;;4.78;;
48092;SDS011;33873;47.442;18.902;2023-05-17T02:48:44;8.30;;;3.87;;
48092;SDS011;33873;47.442;18.902;2023-05-17T02:51:12;6.87;;;3.83;;
48092;SDS011;33873;47.442;18.902;2023-05-17T02:53:40;8.55;;;3.78;;
48092;SDS011;33873;47.442;18.902;2023-05-17T02:56:08;12.18;;;4.22;;
48092;SDS011;33873;47.442;18.902;2023-05-17T02:58:35;4.95;;;3.05;;
48092;SDS011;33873;47.442;18.902;2023-05-17T03:01:04;8.32;;;3.22;;
48092;SDS011;33873;47.442;18.902;2023-05-17T03:03:31;10.85;;;5.15;;
48092;SDS011;33873;47.442;18.902;2023-05-17T03:06:00;8.73;;;3.55;;
48092;SDS011;33873;47.442;18.902;2023-05-17T03:08:28;5.25;;;3.22;;
48092;SDS011;33873;47.442;18.902;2023-05-17T03:10:56;6.07;;;3.83;;
48092;SDS011;33873;47.442;18.902;2023-05-17T03:13:24;6.35;;;4.40;;
48092;SDS011;33873;47.442;18.902;2023-05-17T03:15:52;7.45;;;4.03;;
48092;SDS011;33873;47.442;18.902;2023-05-17T03:18:19;7.65;;;4.45;;
48092;SDS011;33873;47.442;18.902;2023-05-17T03:20:48;8.10;;;4.87;;
48092;SDS011;33873;47.442;18.902;2023-05-17T03:23:16;6.28;;;3.65;;
48092;SDS011;33873;47.442;18.902;2023-05-17T03:25:44;8.63;;;4.07;;
48092;SDS011;33873;47.442;18.902;2023-05-17T03:28:13;9.43;;;4.87;;
48092;SDS011;33873;47.442;18.902;2023-05-17T03:30:40;7.60;;;4.93;;
48092;SDS011;33873;47.442;18.902;2023-05-17T03:33:08;6.47;;;3.55;;
48092;SDS011;33873;47.442;18.902;2023-05-17T03:35:36;7.45;;;4.87;;
48092;SDS011;33873;47.442;18.902;2023-05-17T03:38:03;8.20;;;4.65;;
48092;SDS011;33873;47.442;18.902;2023-05-17T03:40:31;9.23;;;4.45;;
48092;SDS011;33873;47.442;18.902;2023-05-17T03:42:59;7.90;;;4.75;;
48092;SDS011;33873;47.442;18.902;2023-05-17T03:45:28;8.55;;;5.72;;
48092;SDS011;33873;47.442;18.902;2023-05-17T03:47:55;10.52;;;5.18;;
48092;SDS011;33873;47.442;18.902;2023-05-17T03:50:24;7.30;;;5.53;;
48092;SDS011;33873;47.442;18.902;2023-05-17T03:52:52;13.77;;;5.80;;
48092;SDS011;33873;47.442;18.902;2023-05-17T03:55:19;6.32;;;4.35;;
48092;SDS011;33873;47.442;18.902;2023-05-17T03:57:47;6.78;;;4.35;;
48092;SDS011;33873;47.442;18.902;2023-05-17T04:00:15;6.82;;;4.72;;
48092;SDS011;33873;47.442;18.902;2023-05-17T04:02:47;13.32;;;5.47;;
48092;SDS011;33873;47.442;18.902;2023-05-17T04:05:17;7.72;;;4.15;;
48092;SDS011;33873;47.442;18.902;2023-05-17T04:07:46;8.43;;;3.50;;
48092;SDS011;33873;47.442;18.902;2023-05-17T04:10:13;9.55;;;4.47;;
48092;SDS011;33873;47.442;18.902;2023-05-17T04:12:41;6.55;;;4.20;;
48092;SDS011;33873;47.442;18.902;2023-05-17T04:15:09;6.25;;;4.10;;
48092;SDS011;33873;47.442;18.902;2023-05-17T04:17:37;6.40;;;3.53;;
48092;SDS011;33873;47.442;18.902;2023-05-17T04:20:05;6.82;;;4.20;;
48092;SDS011;33873;47.442;18.902;2023-05-17T04:22:33;16.20;;;4.35;;
48092;SDS011;33873;47.442;18.902;2023-05-17T04:25:01;6.72;;;3.90;;
48092;SDS011;33873;47.442;18.902;2023-05-17T04:27:29;7.53;;;4.57;;
48092;SDS011;33873;47.442;18.902;2023-05-17T04:29:56;10.48;;;4.57;;
48092;SDS011;33873;47.442;18.902;2023-05-17T04:32:24;6.70;;;4.50;;
48092;SDS011;33873;47.442;18.902;2023-05-17T04:34:52;6.37;;;4.28;;
48092;SDS011;33873;47.442;18.902;2023-05-17T04:37:20;11.75;;;4.87;;
48092;SDS011;33873;47.442;18.902;2023-05-17T04:39:48;8.75;;;3.55;;
48092;SDS011;33873;47.442;18.902;2023-05-17T04:42:16;10.93;;;4.15;;
48092;SDS011;33873;47.442;18.902;2023-05-17T04:44:44;10.77;;;5.32;;
48092;SDS011;33873;47.442;18.902;2023-05-17T04:47:12;10.32;;;4.25;;
48092;SDS011;33873;47.442;18.902;2023-05-17T04:49:40;8.98;;;5.25;;
48092;SDS011;33873;47.442;18.902;2023-05-17T04:52:07;6.62;;;3.75;;
48092;SDS011;33873;47.442;18.902;2023-05-17T04:54:35;5.70;;;3.80;;
48092;SDS011;33873;47.442;18.902;2023-05-17T04:57:03;7.80;;;3.92;;
48092;SDS011;33873;47.442;18.902;2023-05-17T04:59:33;5.55;;;3.62;;
48092;SDS011;33873;47.442;18.902;2023-05-17T05:02:00;6.18;;;3.78;;
48092;SDS011;33873;47.442;18.902;2023-05-17T05:04:28;5.93;;;3.25;;
48092;SDS011;33873;47.442;18.902;2023-05-17T05:06:56;8.63;;;2.58;;
48092;SDS011;33873;47.442;18.902;2023-05-17T05:09:23;4.85;;;3.28;;
48092;SDS011;33873;47.442;18.902;2023-05-17T05:11:51;7.28;;;3.55;;
48092;SDS011;33873;47.442;18.902;2023-05-17T05:14:19;5.30;;;2.70;;
48092;SDS011;33873;47.442;18.902;2023-05-17T05:16:47;8.27;;;3.42;;
48092;SDS011;33873;47.442;18.902;2023-05-17T05:19:15;8.15;;;4.37;;
48092;SDS011;33873;47.442;18.902;2023-05-17T05:21:44;7.47;;;3.50;;
48092;SDS011;33873;47.442;18.902;2023-05-17T05:24:12;10.68;;;4.60;;
48092;SDS011;33873;47.442;18.902;2023-05-17T05:26:40;7.30;;;4.07;;
48092;SDS011;33873;47.442;18.902;2023-05-17T05:29:09;11.23;;;5.07;;
48092;SDS011;33873;47.442;18.902;2023-05-17T05:31:37;11.18;;;4.32;;
48092;SDS011;33873;47.442;18.902;2023-05-17T05:34:05;9.35;;;4.47;;
48092;SDS011;33873;47.442;18.902;2023-05-17T05:36:33;11.40;;;5.22;;
48092;SDS011;33873;47.442;18.902;2023-05-17T05:39:01;11.15;;;5.75;;
48092;SDS011;33873;47.442;18.902;2023-05-17T05:41:29;14.60;;;6.28;;
48092;SDS011;33873;47.442;18.902;2023-05-17T05:43:57;15.55;;;6.37;;
48092;SDS011;33873;47.442;18.902;2023-05-17T05:46:25;6.72;;;4.12;;
48092;SDS011;33873;47.442;18.902;2023-05-17T05:48:53;9.60;;;5.93;;
48092;SDS011;33873;47.442;18.902;2023-05-17T05:51:21;11.85;;;4.80;;
48092;SDS011;33873;47.442;18.902;2023-05-17T05:53:49;7.20;;;5.10;;
48092;SDS011;33873;47.442;18.902;2023-05-17T05:56:18;7.03;;;4.20;;
48092;SDS011;33873;47.442;18.902;2023-05-17T05:58:46;11.15;;;4.85;;
48092;SDS011;33873;47.442;18.902;2023-05-17T06:01:13;11.68;;;4.90;;
48092;SDS011;33873;47.442;18.902;2023-05-17T06:03:41;9.68;;;4.93;;
48092;SDS011;33873;47.442;18.902;2023-05-17T06:06:08;8.60;;;3.97;;
48092;SDS011;33873;47.442;18.902;2023-05-17T06:08:36;8.45;;;4.82;;
48092;SDS011;33873;47.442;18.902;2023-05-17T06:11:04;7.72;;;4.72;;
48092;SDS011;33873;47.442;18.902;2023-05-17T06:13:32;10.07;;;3.58;;
48092;SDS011;33873;47.442;18.902;2023-05-17T06:15:59;9.10;;;4.60;;
48092;SDS011;33873;47.442;18.902;2023-05-17T06:18:27;6.07;;;3.20;;
48092;SDS011;33873;47.442;18.902;2023-05-17T06:20:55;8.93;;;3.85;;
48092;SDS011;33873;47.442;18.902;2023-05-17T06:23:22;9.23;;;4.05;;
48092;SDS011;33873;47.442;18.902;2023-05-17T06:25:50;8.13;;;3.75;;
48092;SDS011;33873;47.442;18.902;2023-05-17T06:28:18;9.68;;;4.18;;
48092;SDS011;33873;47.442;18.902;2023-05-17T06:30:46;6.80;;;4.10;;
48092;SDS011;33873;47.442;18.902;2023-05-17T06:33:14;11.45;;;4.15;;
48092;SDS011;33873;47.442;18.902;2023-05-17T06:35:42;7.72;;;4.28;;
48092;SDS011;33873;47.442;18.902;2023-05-17T06:38:23;6.37;;;3.50;;
48092;SDS011;33873;47.442;18.902;2023-05-17T06:40:54;7.53;;;3.83;;
48092;SDS011;33873;47.442;18.902;2023-05-17T06:43:21;6.35;;;3.55;;
48092;SDS011;33873;47.442;18.902;2023-05-17T06:45:49;7.95;;;3.58;;
48092;SDS011;33873;47.442;18.902;2023-05-17T06:48:17;7.20;;;3.40;;
48092;SDS011;33873;47.442;18.902;2023-05-17T06:50:45;10.75;;;3.58;;
48092;SDS011;33873;47.442;18.902;2023-05-17T06:53:13;6.50;;;3.45;;
48092;SDS011;33873;47.442;18.902;2023-05-17T06:55:40;13.20;;;3.53;;
48092;SDS011;33873;47.442;18.902;2023-05-17T06:58:09;12.18;;;4.03;;
48092;SDS011;33873;47.442;18.902;2023-05-17T07:00:37;8.75;;;4.80;;
48092;SDS011;33873;47.442;18.902;2023-05-17T07:03:04;8.15;;;4.05;;
48092;SDS011;33873;47.442;18.902;2023-05-17T07:05:32;7.93;;;4.07;;
48092;SDS011;33873;47.442;18.902;2023-05-17T07:08:00;9.13;;;5.15;;
48092;SDS011;33873;47.442;18.902;2023-05-17T07:10:28;10.38;;;4.72;;
48092;SDS011;33873;47.442;18.902;2023-05-17T07:12:55;10.52;;;5.57;;
48092;SDS011;33873;47.442;18.902;2023-05-17T07:15:23;5.87;;;3.97;;
48092;SDS011;33873;47.442;18.902;2023-05-17T07:17:51;8.70;;;4.12;;
48092;SDS011;33873;47.442;18.902;2023-05-17T07:20:19;10.40;;;4.68;;
48092;SDS011;33873;47.442;18.902;2023-05-17T07:22:46;7.97;;;5.25;;
48092;SDS011;33873;47.442;18.902;2023-05-17T07:25:14;10.00;;;4.22;;
48092;SDS011;33873;47.442;18.902;2023-05-17T07:27:44;6.30;;;4.32;;
48092;SDS011;33873;47.442;18.902;2023-05-17T07:30:14;8.02;;;4.68;;
48092;SDS011;33873;47.442;18.902;2023-05-17T07:32:41;7.62;;;4.50;;
48092;SDS011;33873;47.442;18.902;2023-05-17T07:35:09;8.02;;;4.57;;
48092;SDS011;33873;47.442;18.902;2023-05-17T07:37:37;11.77;;;4.68;;
48092;SDS011;33873;47.442;18.902;2023-05-17T07:40:04;7.40;;;3.55;;
48092;SDS011;33873;47.442;18.902;2023-05-17T07:42:33;5.72;;;3.72;;
48092;SDS011;33873;47.442;18.902;2023-05-17T07:45:00;5.20;;;3.53;;
48092;SDS011;33873;47.442;18.902;2023-05-17T07:47:28;6.55;;;3.65;;
48092;SDS011;33873;47.442;18.902;2023-05-17T07:49:56;5.90;;;3.10;;
48092;SDS011;33873;47.442;18.902;2023-05-17T07:52:24;5.15;;;3.15;;
48092;SDS011;33873;47.442;18.902;2023-05-17T07:54:52;5.68;;;3.17;;
48092;SDS011;33873;47.442;18.902;2023-05-17T07:57:19;7.55;;;3.47;;
48092;SDS011;33873;47.442;18.902;2023-05-17T07:59:47;5.22;;;2.53;;
48092;SDS011;33873;47.442;18.902;2023-05-17T08:02:15;4.75;;;2.42;;
48092;SDS011;33873;47.442;18.902;2023-05-17T08:04:42;5.07;;;3.55;;
48092;SDS011;33873;47.442;18.902;2023-05-17T08:07:11;6.50;;;3.47;;
48092;SDS011;33873;47.442;18.902;2023-05-17T08:09:38;5.25;;;3.17;;
48092;SDS011;33873;47.442;18.902;2023-05-17T08:12:07;5.75;;;3.25;;
48092;SDS011;33873;47.442;18.902;2023-05-17T08:14:35;4.15;;;2.37;;
48092;SDS011;33873;47.442;18.902;2023-05-17T08:17:02;8.77;;;4.10;;
48092;SDS011;33873;47.442;18.902;2023-05-17T08:19:30;6.12;;;3.67;;
48092;SDS011;33873;47.442;18.902;2023-05-17T08:21:58;9.25;;;3.90;;
48092;SDS011;33873;47.442;18.902;2023-05-17T08:24:26;5.50;;;2.50;;
48092;SDS011;33873;47.442;18.902;2023-05-17T08:26:53;4.45;;;2.45;;
48092;SDS011;33873;47.442;18.902;2023-05-17T08:29:21;14.18;;;3.50;;
48092;SDS011;33873;47.442;18.902;2023-05-17T08:31:48;6.50;;;3.40;;
48092;SDS011;33873;47.442;18.902;2023-05-17T08:34:18;6.25;;;3.67;;
48092;SDS011;33873;47.442;18.902;2023-05-17T08:36:45;6.05;;;2.85;;
48092;SDS011;33873;47.442;18.902;2023-05-17T08:39:13;5.80;;;3.10;;
48092;SDS011;33873;47.442;18.902;2023-05-17T08:41:41;8.20;;;3.90;;
48092;SDS011;33873;47.442;18.902;2023-05-17T08:44:09;8.30;;;3.40;;
48092;SDS011;33873;47.442;18.902;2023-05-17T08:46:37;8.40;;;3.55;;
48092;SDS011;33873;47.442;18.902;2023-05-17T08:49:06;11.15;;;3.33;;
48092;SDS011;33873;47.442;18.902;2023-05-17T08:51:34;5.32;;;2.97;;
48092;SDS011;33873;47.442;18.902;2023-05-17T08:54:02;4.72;;;2.97;;
48092;SDS011;33873;47.442;18.902;2023-05-17T08:56:34;6.43;;;2.45;;
48092;SDS011;33873;47.442;18.902;2023-05-17T08:59:05;4.37;;;2.55;;
48092;SDS011;33873;47.442;18.902;2023-05-17T09:01:39;4.30;;;2.62;;
48092;SDS011;33873;47.442;18.902;2023-05-17T09:04:09;4.45;;;2.62;;
48092;SDS011;33873;47.442;18.902;2023-05-17T09:06:37;10.10;;;2.80;;
48092;SDS011;33873;47.442;18.902;2023-05-17T09:09:05;5.90;;;2.78;;
48092;SDS011;33873;47.442;18.902;2023-05-17T09:11:35;4.07;;;2.30;;
48092;SDS011;33873;47.442;18.902;2023-05-17T09:14:03;3.42;;;2.22;;
48092;SDS011;33873;47.442;18.902;2023-05-17T09:16:35;8.07;;;2.67;;
48092;SDS011;33873;47.442;18.902;2023-05-17T09:19:04;4.93;;;3.53;;
48092;SDS011;33873;47.442;18.902;2023-05-17T09:21:33;5.32;;;2.28;;
48092;SDS011;33873;47.442;18.902;2023-05-17T09:24:03;5.75;;;2.60;;
48092;SDS011;33873;47.442;18.902;2023-05-17T09:29:11;3.97;;;2.70;;
48092;SDS011;33873;47.442;18.902;2023-05-17T09:31:40;6.10;;;2.37;;
48092;SDS011;33873;47.442;18.902;2023-05-17T09:34:09;5.15;;;2.05;;
48092;SDS011;33873;47.442;18.902;2023-05-17T09:36:37;4.57;;;2.72;;
48092;SDS011;33873;47.442;18.902;2023-05-17T09:39:08;3.78;;;2.30;;
48092;SDS011;33873;47.442;18.902;2023-05-17T09:41:40;6.93;;;3.05;;
48092;SDS011;33873;47.442;18.902;2023-05-17T09:44:10;4.07;;;2.50;;
48092;SDS011;33873;47.442;18.902;2023-05-17T09:46:42;5.72;;;3.22;;
48092;SDS011;33873;47.442;18.902;2023-05-17T09:49:12;6.10;;;3.08;;
48092;SDS011;33873;47.442;18.902;2023-05-17T09:51:40;5.20;;;3.20;;
48092;SDS011;33873;47.442;18.902;2023-05-17T09:54:09;5.87;;;3.12;;
48092;SDS011;33873;47.442;18.902;2023-05-17T09:56:37;6.47;;;3.08;;
48092;SDS011;33873;47.442;18.902;2023-05-17T09:59:12;5.78;;;3.75;;
48092;SDS011;33873;47.442;18.902;2023-05-17T10:01:42;8.32;;;3.53;;
48092;SDS011;33873;47.442;18.902;2023-05-17T10:04:12;4.32;;;2.25;;
48092;SDS011;33873;47.442;18.902;2023-05-17T10:06:40;8.07;;;2.97;;
48092;SDS011;33873;47.442;18.902;2023-05-17T10:09:12;10.15;;;3.62;;
48092;SDS011;33873;47.442;18.902;2023-05-17T10:11:41;5.00;;;2.62;;
48092;SDS011;33873;47.442;18.902;2023-05-17T10:14:11;6.25;;;3.35;;
48092;SDS011;33873;47.442;18.902;2023-05-17T10:16:51;5.95;;;2.62;;
48092;SDS011;33873;47.442;18.902;2023-05-17T10:19:19;6.90;;;3.08;;
48092;SDS011;33873;47.442;18.902;2023-05-17T10:21:49;3.55;;;1.95;;
48092;SDS011;33873;47.442;18.902;2023-05-17T10:24:19;4.90;;;3.47;;
48092;SDS011;33873;47.442;18.902;2023-05-17T10:26:50;7.18;;;3.25;;
48092;SDS011;33873;47.442;18.902;2023-05-17T10:29:18;5.18;;;2.62;;
48092;SDS011;33873;47.442;18.902;2023-05-17T10:31:47;5.35;;;3.25;;
48092;SDS011;33873;47.442;18.902;2023-05-17T10:34:17;5.43;;;1.85;;
48092;SDS011;33873;47.442;18.902;2023-05-17T10:36:48;4.80;;;2.60;;
48092;SDS011;33873;47.442;18.902;2023-05-17T10:39:16;7.18;;;3.00;;
48092;SDS011;33873;47.442;18.902;2023-05-17T10:41:44;5.72;;;2.72;;
48092;SDS011;33873;47.442;18.902;2023-05-17T10:44:13;4.97;;;2.37;;
48092;SDS011;33873;47.442;18.902;2023-05-17T10:46:55;4.18;;;2.83;;
48092;SDS011;33873;47.442;18.902;2023-05-17T10:49:24;5.40;;;3.20;;
48092;SDS011;33873;47.442;18.902;2023-05-17T10:51:56;6.22;;;3.00;;
48092;SDS011;33873;47.442;18.902;2023-05-17T10:54:46;5.55;;;2.30;;
48092;SDS011;33873;47.442;18.902;2023-05-17T10:57:31;3.65;;;2.05;;
48092;SDS011;33873;47.442;18.902;2023-05-17T11:00:19;8.35;;;2.80;;
48092;SDS011;33873;47.442;18.902;2023-05-17T11:02:48;3.08;;;2.20;;
48092;SDS011;33873;47.442;18.902;2023-05-17T11:05:24;3.87;;;1.85;;
48092;SDS011;33873;47.442;18.902;2023-05-17T11:07:52;3.20;;;2.12;;
48092;SDS011;33873;47.442;18.902;2023-05-17T11:10:48;3.62;;;2.40;;
48092;SDS011;33873;47.442;18.902;2023-05-17T11:13:46;3.85;;;2.20;;
48092;SDS011;33873;47.442;18.902;2023-05-17T11:16:23;3.70;;;1.95;;
48092;SDS011;33873;47.442;18.902;2023-05-17T11:18:54;3.50;;;2.53;;
48092;SDS011;33873;47.442;18.902;2023-05-17T11:21:24;9.32;;;3.22;;
48092;SDS011;33873;47.442;18.902;2023-05-17T11:23:54;4.30;;;2.55;;
48092;SDS011;33873;47.442;18.902;2023-05-17T11:26:31;4.25;;;1.95;;
48092;SDS011;33873;47.442;18.902;2023-05-17T11:29:09;5.57;;;2.03;;
48092;SDS011;33873;47.442;18.902;2023-05-17T11:31:42;3.45;;;2.33;;
48092;SDS011;33873;47.442;18.902;2023-05-17T11:34:10;3.55;;;2.35;;
48092;SDS011;33873;47.442;18.902;2023-05-17T11:36:49;2.30;;;1.33;;
48092;SDS011;33873;47.442;18.902;2023-05-17T11:39:18;2.95;;;1.87;;
48092;SDS011;33873;47.442;18.902;2023-05-17T11:41:49;2.97;;;1.87;;
48092;SDS011;33873;47.442;18.902;2023-05-17T11:44:25;2.92;;;1.92;;
48092;SDS011;33873;47.442;18.902;2023-05-17T11:46:59;5.25;;;2.47;;
48092;SDS011;33873;47.442;18.902;2023-05-17T11:49:29;3.92;;;1.58;;
48092;SDS011;33873;47.442;18.902;2023-05-17T11:52:03;6.22;;;2.12;;
48092;SDS011;33873;47.442;18.902;2023-05-17T11:54:31;3.15;;;2.22;;
48092;SDS011;33873;47.442;18.902;2023-05-17T11:56:59;5.55;;;2.65;;
48092;SDS011;33873;47.442;18.902;2023-05-17T11:59:35;4.85;;;2.60;;
48092;SDS011;33873;47.442;18.902;2023-05-17T12:02:06;5.65;;;2.25;;
48092;SDS011;33873;47.442;18.902;2023-05-17T12:04:34;5.05;;;2.17;;
48092;SDS011;33873;47.442;18.902;2023-05-17T12:07:09;3.10;;;2.12;;
48092;SDS011;33873;47.442;18.902;2023-05-17T12:09:37;9.68;;;2.08;;
48092;SDS011;33873;47.442;18.902;2023-05-17T12:12:05;5.53;;;1.60;;
48092;SDS011;33873;47.442;18.902;2023-05-17T12:14:34;3.58;;;1.55;;
48092;SDS011;33873;47.442;18.902;2023-05-17T12:17:04;5.32;;;2.25;;
48092;SDS011;33873;47.442;18.902;2023-05-17T12:19:35;10.73;;;3.15;;
48092;SDS011;33873;47.442;18.902;2023-05-17T12:22:07;4.25;;;2.17;;
48092;SDS011;33873;47.442;18.902;2023-05-17T12:24:39;3.10;;;1.85;;
48092;SDS011;33873;47.442;18.902;2023-05-17T12:27:08;3.22;;;1.50;;
48092;SDS011;33873;47.442;18.902;2023-05-17T12:29:37;4.12;;;1.92;;
48092;SDS011;33873;47.442;18.902;2023-05-17T12:32:05;3.80;;;1.90;;
48092;SDS011;33873;47.442;18.902;2023-05-17T12:34:35;3.10;;;1.67;;
48092;SDS011;33873;47.442;18.902;2023-05-17T12:37:03;2.90;;;1.50;;
48092;SDS011;33873;47.442;18.902;2023-05-17T12:39:36;4.07;;;2.08;;
48092;SDS011;33873;47.442;18.902;2023-05-17T12:42:04;3.45;;;1.48;;
48092;SDS011;33873;47.442;18.902;2023-05-17T12:44:32;2.62;;;1.65;;
48092;SDS011;33873;47.442;18.902;2023-05-17T12:47:01;3.03;;;1.62;;
48092;SDS011;33873;47.442;18.902;2023-05-17T12:49:28;3.92;;;1.77;;
48092;SDS011;33873;47.442;18.902;2023-05-17T12:51:56;2.72;;;1.60;;
48092;SDS011;33873;47.442;18.902;2023-05-17T12:54:30;3.95;;;1.95;;
48092;SDS011;33873;47.442;18.902;2023-05-17T12:57:07;5.18;;;2.37;;
48092;SDS011;33873;47.442;18.902;2023-05-17T12:59:45;3.50;;;2.03;;
48092;SDS011;33873;47.442;18.902;2023-05-17T13:02:14;4.62;;;2.33;;
48092;SDS011;33873;47.442;18.902;2023-05-17T13:04:42;5.00;;;2.03;;
48092;SDS011;33873;47.442;18.902;2023-05-17T13:07:10;4.68;;;2.80;;
48092;SDS011;33873;47.442;18.902;2023-05-17T13:09:45;7.07;;;2.50;;
48092;SDS011;33873;47.442;18.902;2023-05-17T13:12:20;3.35;;;2.12;;
48092;SDS011;33873;47.442;18.902;2023-05-17T13:14:50;4.12;;;2.67;;
48092;SDS011;33873;47.442;18.902;2023-05-17T13:17:26;5.10;;;2.03;;
48092;SDS011;33873;47.442;18.902;2023-05-17T13:20:01;3.47;;;2.03;;
48092;SDS011;33873;47.442;18.902;2023-05-17T13:22:30;3.80;;;1.77;;
48092;SDS011;33873;47.442;18.902;2023-05-17T13:24:57;2.40;;;1.40;;
48092;SDS011;33873;47.442;18.902;2023-05-17T13:27:24;3.08;;;1.95;;
48092;SDS011;33873;47.442;18.902;2023-05-17T13:29:52;3.28;;;2.10;;
48092;SDS011;33873;47.442;18.902;2023-05-17T13:32:20;3.22;;;2.10;;
48092;SDS011;33873;47.442;18.902;2023-05-17T13:34:47;3.62;;;1.83;;
48092;SDS011;33873;47.442;18.902;2023-05-17T13:37:15;10.23;;;1.77;;
48092;SDS011;33873;47.442;18.902;2023-05-17T13:39:43;3.78;;;1.45;;
48092;SDS011;33873;47.442;18.902;2023-05-17T13:42:11;4.80;;;2.25;;
48092;SDS011;33873;47.442;18.902;2023-05-17T13:44:39;2.97;;;1.65;;
48092;SDS011;33873;47.442;18.902;2023-05-17T13:47:06;2.85;;;1.90;;
48092;SDS011;33873;47.442;18.902;2023-05-17T13:49:34;3.40;;;1.55;;
48092;SDS011;33873;47.442;18.902;2023-05-17T13:52:02;5.40;;;2.10;;
48092;SDS011;33873;47.442;18.902;2023-05-17T13:54:30;5.85;;;1.60;;
48092;SDS011;33873;47.442;18.902;2023-05-17T13:56:57;6.12;;;3.67;;
48092;SDS011;33873;47.442;18.902;2023-05-17T13:59:25;3.22;;;1.85;;
48092;SDS011;33873;47.442;18.902;2023-05-17T14:01:53;3.20;;;1.73;;
48092;SDS011;33873;47.442;18.902;2023-05-17T14:04:21;4.80;;;2.28;;
48092;SDS011;33873;47.442;18.902;2023-05-17T14:06:48;3.83;;;1.98;;
48092;SDS011;33873;47.442;18.902;2023-05-17T14:09:28;3.08;;;1.52;;
48092;SDS011;33873;47.442;18.902;2023-05-17T14:12:00;3.28;;;1.55;;
48092;SDS011;33873;47.442;18.902;2023-05-17T14:14:28;2.50;;;1.48;;
48092;SDS011;33873;47.442;18.902;2023-05-17T14:16:56;2.05;;;1.40;;
48092;SDS011;33873;47.442;18.902;2023-05-17T14:19:24;1.55;;;1.10;;
48092;SDS011;33873;47.442;18.902;2023-05-17T14:21:52;2.35;;;1.35;;
48092;SDS011;33873;47.442;18.902;2023-05-17T14:24:19;3.12;;;1.55;;
48092;SDS011;33873;47.442;18.902;2023-05-17T14:26:47;3.00;;;1.62;;
48092;SDS011;33873;47.442;18.902;2023-05-17T14:29:15;2.33;;;1.23;;
48092;SDS011;33873;47.442;18.902;2023-05-17T14:31:42;3.17;;;1.73;;
48092;SDS011;33873;47.442;18.902;2023-05-17T14:34:10;3.95;;;2.22;;
48092;SDS011;33873;47.442;18.902;2023-05-17T14:36:40;3.40;;;1.23;;
48092;SDS011;33873;47.442;18.902;2023-05-17T14:39:08;2.95;;;1.58;;
48092;SDS011;33873;47.442;18.902;2023-05-17T14:41:36;2.22;;;1.45;;
48092;SDS011;33873;47.442;18.902;2023-05-17T14:44:05;4.87;;;1.75;;
48092;SDS011;33873;47.442;18.902;2023-05-17T14:46:33;3.33;;;1.45;;
48092;SDS011;33873;47.442;18.902;2023-05-17T14:49:01;10.15;;;1.58;;
48092;SDS011;33873;47.442;18.902;2023-05-17T14:51:29;2.50;;;1.70;;
48092;SDS011;33873;47.442;18.902;2023-05-17T14:53:56;4.65;;;1.85;;